createdAt,value
2018-07-22T00:01:06.846Z,16.30
2018-07-22T00:03:35.072Z,16.30
2018-07-22T00:06:03.329Z,16.40
2018-07-22T00:08:31.452Z,16.40
2018-07-22T00:10:59.701Z,16.30
2018-07-22T00:13:27.856Z,16.30
2018-07-22T00:15:55.956Z,16.30
2018-07-22T00:18:24.195Z,16.40
2018-07-22T00:23:20.276Z,16.30
2018-07-22T00:25:48.530Z,16.30
2018-07-22T00:28:16.615Z,16.30
2018-07-22T00:30:44.813Z,16.30
2018-07-22T00:33:12.896Z,16.20
2018-07-22T00:35:40.844Z,16.20
2018-07-22T00:38:09.007Z,16.20
2018-07-22T00:40:37.091Z,16.20
2018-07-22T00:43:05.381Z,16.20
2018-07-22T00:45:33.541Z,16.10
2018-07-22T00:48:01.733Z,16.10
2018-07-22T00:50:29.889Z,16.20
2018-07-22T00:52:57.993Z,16.20
2018-07-22T00:55:26.023Z,16.20
2018-07-22T00:57:54.104Z,16.10
2018-07-22T01:00:22.360Z,16.10
2018-07-22T01:02:50.473Z,16.10
2018-07-22T01:05:18.638Z,16.10
2018-07-22T01:07:46.790Z,16.10
2018-07-22T01:12:42.546Z,16.20
2018-07-22T01:15:11.252Z,16.10
2018-07-22T01:17:39.492Z,16.10
2018-07-22T01:22:35.967Z,16.10
2018-07-22T01:25:04.249Z,16.10
2018-07-22T01:27:32.560Z,16.10
2018-07-22T01:30:00.580Z,16.10
2018-07-22T01:32:28.679Z,16.10
2018-07-22T01:34:56.917Z,16.10
2018-07-22T01:39:53.096Z,16.10
2018-07-22T01:42:21.198Z,16.10
2018-07-22T01:44:49.331Z,16.10
2018-07-22T01:47:17.541Z,16.10
2018-07-22T01:49:45.641Z,16.10
2018-07-22T01:52:13.973Z,16.10
2018-07-22T01:54:42.162Z,16.10
2018-07-22T01:57:10.201Z,16.10
2018-07-22T02:02:06.479Z,16.10
2018-07-22T02:04:34.555Z,16.10
2018-07-22T02:07:02.921Z,16.10
2018-07-22T02:09:31.221Z,16.10
2018-07-22T02:11:59.260Z,16.10
2018-07-22T02:14:27.492Z,16.10
2018-07-22T02:16:55.629Z,16.10
2018-07-22T02:19:23.705Z,16.10
2018-07-22T02:21:51.774Z,16.10
2018-07-22T02:24:19.836Z,16.10
2018-07-22T02:26:47.920Z,16.10
2018-07-22T02:29:16.086Z,16.10
2018-07-22T02:31:44.193Z,16.10
2018-07-22T02:34:12.458Z,16.10
2018-07-22T02:36:40.520Z,16.10
2018-07-22T02:39:10.919Z,16.10
2018-07-22T02:41:39.012Z,16.10
2018-07-22T02:44:07.161Z,16.10
2018-07-22T02:46:35.661Z,16.10
2018-07-22T02:49:03.759Z,16.10
2018-07-22T02:51:31.950Z,16.10
2018-07-22T02:54:00.221Z,16.10
2018-07-22T02:56:28.259Z,16.00
2018-07-22T03:01:24.241Z,16.00
2018-07-22T03:03:52.384Z,16.00
2018-07-22T03:06:20.497Z,16.00
2018-07-22T03:08:48.527Z,15.90
2018-07-22T03:11:16.638Z,15.90
2018-07-22T03:13:44.763Z,15.90
2018-07-22T03:18:40.837Z,15.80
2018-07-22T03:21:09.022Z,15.80
2018-07-22T03:23:36.998Z,15.70
2018-07-22T03:26:05.705Z,15.70
2018-07-22T03:28:33.635Z,15.70
2018-07-22T03:31:01.553Z,15.70
2018-07-22T03:33:30.356Z,15.70
2018-07-22T03:35:58.331Z,15.70
2018-07-22T03:38:26.291Z,15.60
2018-07-22T03:40:54.259Z,15.60
2018-07-22T03:43:22.211Z,15.60
2018-07-22T03:45:50.153Z,15.50
2018-07-22T03:48:18.058Z,15.50
2018-07-22T03:50:46.022Z,15.40
2018-07-22T03:53:13.937Z,15.50
2018-07-22T03:58:09.635Z,15.40
2018-07-22T04:00:37.688Z,15.50
2018-07-22T04:03:06.126Z,15.60
2018-07-22T04:08:02.120Z,15.50
2018-07-22T04:10:30.310Z,15.60
2018-07-22T04:12:58.363Z,15.60
2018-07-22T04:15:26.505Z,15.50
2018-07-22T04:17:54.732Z,15.50
2018-07-22T04:20:22.778Z,15.50
2018-07-22T04:22:50.822Z,15.50
2018-07-22T04:25:19.023Z,15.40
2018-07-22T04:27:47.187Z,15.40
2018-07-22T04:30:15.285Z,15.40
2018-07-22T04:32:43.444Z,15.40
2018-07-22T04:35:11.740Z,15.40
2018-07-22T04:37:39.769Z,15.40
2018-07-22T04:42:35.617Z,15.40
2018-07-22T04:45:04.476Z,15.40
2018-07-22T04:50:00.797Z,15.40
2018-07-22T04:52:28.860Z,15.50
2018-07-22T04:54:57.008Z,15.50
2018-07-22T04:57:25.311Z,15.50
2018-07-22T04:59:53.454Z,15.50
2018-07-22T05:04:49.479Z,15.60
2018-07-22T05:07:17.599Z,15.60
2018-07-22T05:09:45.781Z,15.60
2018-07-22T05:12:13.819Z,15.50
2018-07-22T05:17:09.864Z,15.50
2018-07-22T05:19:37.963Z,15.60
2018-07-22T05:22:06.137Z,15.50
2018-07-22T05:24:34.324Z,15.50
2018-07-22T05:27:02.415Z,15.50
2018-07-22T05:29:30.436Z,15.50
2018-07-22T05:34:26.278Z,15.50
2018-07-22T05:36:54.368Z,15.50
2018-07-22T05:39:22.636Z,15.50
2018-07-22T05:41:50.738Z,15.50
2018-07-22T05:44:18.786Z,15.50
2018-07-22T05:46:46.879Z,15.50
2018-07-22T05:49:14.916Z,15.50
2018-07-22T05:54:10.887Z,15.60
2018-07-22T05:56:38.935Z,15.70
2018-07-22T06:01:34.790Z,15.70
2018-07-22T06:04:02.969Z,15.70
2018-07-22T06:06:31.002Z,15.70
2018-07-22T06:08:59.321Z,15.80
2018-07-22T06:11:27.479Z,15.80
2018-07-22T06:13:55.568Z,15.80
2018-07-22T06:16:23.735Z,15.90
2018-07-22T06:18:51.818Z,15.90
2018-07-22T06:21:19.993Z,15.90
2018-07-22T06:23:48.102Z,16.00
2018-07-22T06:26:16.273Z,16.00
2018-07-22T06:28:44.401Z,16.10
2018-07-22T06:31:12.519Z,16.20
2018-07-22T06:33:40.553Z,16.20
2018-07-22T06:36:08.846Z,16.20
2018-07-22T06:38:37.136Z,16.20
2018-07-22T06:41:05.376Z,16.20
2018-07-22T06:43:33.560Z,16.30
2018-07-22T06:46:01.865Z,16.30
2018-07-22T06:48:29.942Z,16.40
2018-07-22T06:50:57.985Z,16.30
2018-07-22T06:53:26.340Z,16.40
2018-07-22T06:55:54.368Z,16.40
2018-07-22T06:58:22.408Z,16.40
2018-07-22T07:00:50.532Z,16.50
2018-07-22T07:03:18.591Z,16.50
2018-07-22T07:05:46.645Z,16.50
2018-07-22T07:08:14.720Z,16.60
2018-07-22T07:10:42.986Z,16.70
2018-07-22T07:13:11.112Z,16.80
2018-07-22T07:15:39.224Z,17.00
2018-07-22T07:18:07.324Z,17.20
2018-07-22T07:20:35.504Z,17.40
2018-07-22T07:23:03.738Z,17.50
2018-07-22T07:25:32.063Z,17.60
2018-07-22T07:28:00.305Z,17.70
2018-07-22T07:30:28.408Z,17.70
2018-07-22T07:32:56.560Z,17.70
2018-07-22T07:35:24.784Z,17.80
2018-07-22T07:37:52.815Z,17.90
2018-07-22T07:40:21.008Z,17.90
2018-07-22T07:42:49.193Z,18.00
2018-07-22T07:45:17.252Z,18.10
2018-07-22T07:47:45.433Z,18.10
2018-07-22T07:50:13.583Z,18.20
2018-07-22T07:52:41.788Z,18.00
2018-07-22T07:55:09.966Z,18.00
2018-07-22T07:57:38.229Z,18.00
2018-07-22T08:00:06.499Z,17.80
2018-07-22T08:02:34.679Z,17.60
2018-07-22T08:05:02.866Z,17.50
2018-07-22T08:07:31.045Z,17.40
2018-07-22T08:09:59.091Z,17.30
2018-07-22T08:12:27.393Z,17.20
2018-07-22T08:14:55.462Z,17.40
2018-07-22T08:17:23.711Z,17.70
2018-07-22T08:22:19.669Z,17.80
2018-07-22T08:24:47.909Z,17.70
2018-07-22T08:27:16.004Z,17.80
2018-07-22T08:29:44.220Z,17.70
2018-07-22T08:32:12.389Z,17.70
2018-07-22T08:34:40.553Z,17.60
2018-07-22T08:37:08.721Z,17.50
2018-07-22T08:39:36.818Z,17.50
2018-07-22T08:42:05.268Z,17.40
2018-07-22T08:44:33.319Z,17.30
2018-07-22T08:49:29.287Z,17.70
2018-07-22T08:51:57.353Z,18.10
2018-07-22T08:54:25.526Z,18.50
2018-07-22T08:59:21.582Z,19.00
2018-07-22T09:01:49.759Z,19.30
2018-07-22T09:04:17.850Z,19.40
2018-07-22T09:06:45.907Z,19.30
2018-07-22T09:09:14.013Z,19.50
2018-07-22T09:11:42.318Z,19.50
2018-07-22T09:14:10.520Z,19.70
2018-07-22T09:19:06.871Z,19.80
2018-07-22T09:24:03.033Z,19.00
2018-07-22T09:26:31.424Z,18.60
2018-07-22T09:28:59.692Z,18.50
2018-07-22T09:31:27.755Z,18.30
2018-07-22T09:33:55.964Z,18.40
2018-07-22T09:36:24.175Z,18.60
2018-07-22T09:38:52.327Z,18.80
2018-07-22T09:41:20.455Z,19.20
2018-07-22T09:43:48.715Z,19.40
2018-07-22T09:46:17.009Z,19.40
2018-07-22T09:48:45.116Z,19.50
2018-07-22T09:51:13.487Z,19.40
2018-07-22T09:53:41.761Z,19.50
2018-07-22T09:56:09.961Z,19.70
2018-07-22T09:58:38.079Z,19.70
2018-07-22T10:01:06.204Z,20.00
2018-07-22T10:03:34.259Z,19.60
2018-07-22T10:06:02.316Z,19.30
2018-07-22T10:08:30.414Z,19.10
2018-07-22T10:10:58.678Z,19.00
2018-07-22T10:13:26.859Z,18.70
2018-07-22T10:15:55.135Z,18.40
2018-07-22T10:18:23.316Z,18.20
2018-07-22T10:20:51.436Z,18.10
2018-07-22T10:23:19.568Z,18.10
2018-07-22T10:25:47.679Z,18.20
2018-07-22T10:28:15.829Z,18.30
2018-07-22T10:30:44.822Z,18.50
2018-07-22T10:33:12.983Z,18.90
2018-07-22T10:35:41.059Z,19.40
2018-07-22T10:38:09.137Z,19.90
2018-07-22T10:40:37.288Z,20.00
2018-07-22T10:43:05.744Z,20.00
2018-07-22T10:45:34.059Z,20.00
2018-07-22T10:48:02.465Z,19.60
2018-07-22T10:50:30.670Z,19.20
2018-07-22T10:55:26.877Z,19.40
2018-07-22T10:57:55.163Z,19.70
2018-07-22T11:00:23.548Z,20.20
2018-07-22T11:02:51.720Z,20.60
2018-07-22T11:05:19.784Z,21.00
2018-07-22T11:07:48.080Z,21.30
2018-07-22T11:10:16.215Z,21.30
2018-07-22T11:12:44.324Z,21.30
2018-07-22T11:15:12.708Z,21.40
2018-07-22T11:17:41.079Z,21.30
2018-07-22T11:20:09.255Z,21.10
2018-07-22T11:22:37.313Z,20.60
2018-07-22T11:25:05.700Z,20.40
2018-07-22T11:27:33.745Z,20.20
2018-07-22T11:30:01.948Z,19.80
2018-07-22T11:32:30.097Z,19.70
2018-07-22T11:34:58.228Z,19.50
2018-07-22T11:37:26.452Z,19.40
2018-07-22T11:39:54.650Z,19.30
2018-07-22T11:42:22.948Z,19.30
2018-07-22T11:44:50.974Z,19.30
2018-07-22T11:49:47.028Z,18.50
2018-07-22T11:52:15.225Z,18.40
2018-07-22T11:54:43.369Z,18.20
2018-07-22T11:57:11.483Z,17.90
2018-07-22T11:59:39.616Z,17.80
2018-07-22T12:02:07.826Z,17.70
2018-07-22T12:04:35.963Z,17.50
2018-07-22T12:09:31.934Z,17.30
2018-07-22T12:12:00.012Z,17.30
2018-07-22T12:14:28.191Z,17.40
2018-07-22T12:16:56.236Z,17.50
2018-07-22T12:19:24.326Z,17.70
2018-07-22T12:21:52.476Z,17.70
2018-07-22T12:26:48.355Z,17.90
2018-07-22T12:29:16.402Z,18.00
2018-07-22T12:31:44.523Z,18.20
2018-07-22T12:34:12.584Z,18.20
2018-07-22T12:36:40.747Z,18.10
2018-07-22T12:39:11.112Z,18.10
2018-07-22T12:41:39.254Z,18.00
2018-07-22T12:44:07.292Z,18.00
2018-07-22T12:46:35.658Z,18.00
2018-07-22T12:49:03.847Z,18.00
2018-07-22T12:51:32.068Z,18.10
2018-07-22T12:54:00.129Z,18.00
2018-07-22T12:56:28.190Z,17.90
2018-07-22T12:58:56.585Z,17.90
2018-07-22T13:01:24.649Z,17.90
2018-07-22T13:03:52.828Z,17.80
2018-07-22T13:06:20.985Z,17.80
2018-07-22T13:08:49.482Z,17.70
2018-07-22T13:11:17.563Z,17.80
2018-07-22T13:13:46.329Z,17.70
2018-07-22T13:16:14.501Z,17.70
2018-07-22T13:18:42.730Z,17.60
2018-07-22T13:21:10.750Z,17.70
2018-07-22T13:23:38.856Z,17.70
2018-07-22T13:26:07.085Z,17.60
2018-07-22T13:31:03.280Z,17.80
2018-07-22T13:33:31.445Z,17.80
2018-07-22T13:35:59.619Z,17.80
2018-07-22T13:38:50.617Z,17.80
2018-07-22T13:41:18.712Z,17.90
2018-07-22T13:43:47.095Z,17.90
2018-07-22T13:46:15.160Z,17.90
2018-07-22T13:48:43.343Z,17.90
2018-07-22T13:51:11.490Z,17.80
2018-07-22T13:53:39.680Z,17.70
2018-07-22T13:56:07.752Z,17.60
2018-07-22T13:58:35.845Z,17.60
2018-07-22T14:01:03.879Z,17.60
2018-07-22T14:03:31.974Z,17.70
2018-07-22T14:06:00.151Z,17.70
2018-07-22T14:08:28.241Z,17.90
2018-07-22T14:10:56.917Z,17.90
2018-07-22T14:13:24.961Z,18.10
2018-07-22T14:15:53.112Z,18.20
2018-07-22T14:18:21.314Z,18.40
2018-07-22T14:20:49.411Z,18.60
2018-07-22T14:23:17.483Z,18.80
2018-07-22T14:25:45.636Z,18.90
2018-07-22T14:28:15.920Z,19.10
2018-07-22T14:30:45.512Z,19.30
2018-07-22T14:33:14.486Z,19.40
2018-07-22T14:35:43.491Z,19.40
2018-07-22T14:40:40.883Z,19.60
2018-07-22T14:43:09.151Z,19.30
2018-07-22T14:45:37.176Z,19.10
2018-07-22T14:50:33.776Z,18.90
2018-07-22T14:53:03.301Z,18.80
2018-07-22T14:55:31.645Z,18.80
2018-07-22T14:58:03.735Z,18.70
2018-07-22T15:00:32.110Z,18.80
2018-07-22T15:03:00.543Z,18.90
2018-07-22T15:10:24.368Z,19.00
2018-07-22T15:12:52.569Z,19.00
2018-07-22T15:15:20.637Z,18.80
2018-07-22T15:17:48.795Z,18.70
2018-07-22T15:20:17.003Z,18.80
2018-07-22T15:22:45.148Z,18.80
2018-07-22T15:25:13.342Z,18.90
2018-07-22T15:27:41.637Z,19.00
2018-07-22T15:30:09.671Z,18.90
2018-07-22T15:35:05.707Z,18.80
2018-07-22T15:37:33.913Z,18.80
2018-07-22T15:40:02.217Z,18.90
2018-07-22T15:42:30.408Z,18.80
2018-07-22T15:44:58.444Z,18.90
2018-07-22T15:47:26.607Z,19.00
2018-07-22T15:49:54.685Z,19.00
2018-07-22T15:52:22.849Z,19.00
2018-07-22T15:54:51.132Z,19.20
2018-07-22T15:57:19.343Z,19.20
2018-07-22T15:59:47.464Z,19.40
2018-07-22T16:02:15.589Z,19.50
2018-07-22T16:04:43.635Z,19.60
2018-07-22T16:07:11.721Z,19.90
2018-07-22T16:09:39.756Z,19.80
2018-07-22T16:12:21.534Z,19.90
2018-07-22T16:14:59.056Z,20.10
2018-07-22T16:17:27.154Z,19.90
2018-07-22T16:19:55.339Z,20.10
2018-07-22T16:22:23.369Z,20.30
2018-07-22T16:24:51.460Z,20.20
2018-07-22T16:27:19.924Z,20.30
2018-07-22T16:32:16.122Z,20.20
2018-07-22T16:34:44.267Z,20.30
2018-07-22T16:37:12.456Z,20.10
2018-07-22T16:39:40.536Z,20.00
2018-07-22T16:42:08.590Z,19.90
2018-07-22T16:44:36.768Z,20.00
2018-07-22T16:47:04.836Z,20.00
2018-07-22T16:49:33.023Z,20.20
2018-07-22T16:52:01.115Z,20.30
2018-07-22T16:54:29.154Z,20.20
2018-07-22T16:56:57.220Z,20.30
2018-07-22T16:59:25.383Z,20.30
2018-07-22T17:04:21.338Z,20.00
2018-07-22T17:06:49.539Z,20.00
2018-07-22T17:09:17.600Z,20.00
2018-07-22T17:11:45.818Z,19.90
2018-07-22T17:14:14.029Z,19.80
2018-07-22T17:16:42.127Z,19.60
2018-07-22T17:19:10.440Z,19.60
2018-07-22T17:21:38.503Z,19.50
2018-07-22T17:24:06.755Z,19.30
2018-07-22T17:26:34.882Z,19.10
2018-07-22T17:29:03.041Z,19.00
2018-07-22T17:31:31.184Z,19.00
2018-07-22T17:33:59.421Z,18.90
2018-07-22T17:38:55.497Z,18.90
2018-07-22T17:41:23.817Z,18.80
2018-07-22T17:43:51.954Z,18.70
2018-07-22T17:46:20.017Z,18.70
2018-07-22T17:48:48.102Z,18.60
2018-07-22T17:51:16.288Z,18.60
2018-07-22T17:53:44.434Z,18.50
2018-07-22T17:56:12.646Z,18.40
2018-07-22T17:58:40.697Z,18.30
2018-07-22T18:01:08.987Z,18.20
2018-07-22T18:03:37.096Z,18.20
2018-07-22T18:06:05.412Z,18.10
2018-07-22T18:11:01.383Z,17.90
2018-07-22T18:13:29.440Z,17.90
2018-07-22T18:15:57.526Z,17.80
2018-07-22T18:18:25.704Z,17.80
2018-07-22T18:20:53.809Z,17.70
2018-07-22T18:23:21.856Z,17.70
2018-07-22T18:25:50.014Z,17.70
2018-07-22T18:28:18.079Z,17.60
2018-07-22T18:30:46.253Z,17.50
2018-07-22T18:33:14.568Z,17.50
2018-07-22T18:35:42.595Z,17.40
2018-07-22T18:40:38.675Z,17.40
2018-07-22T18:43:06.868Z,17.40
2018-07-22T18:45:35.048Z,17.30
2018-07-22T18:48:03.160Z,17.30
2018-07-22T18:52:59.049Z,17.30
2018-07-22T18:55:27.277Z,17.20
2018-07-22T19:00:23.556Z,17.20
2018-07-22T19:02:52.064Z,17.20
2018-07-22T19:05:20.201Z,17.20
2018-07-22T19:07:48.299Z,17.20
2018-07-22T19:10:16.602Z,17.20
2018-07-22T19:12:44.716Z,17.10
2018-07-22T19:17:41.189Z,17.10
2018-07-22T19:20:09.359Z,17.10
2018-07-22T19:22:37.432Z,17.10
2018-07-22T19:25:05.929Z,17.00
2018-07-22T19:27:34.081Z,17.00
2018-07-22T19:32:30.169Z,17.00
2018-07-22T19:34:58.310Z,16.90
2018-07-22T19:39:54.475Z,16.90
2018-07-22T19:42:22.592Z,16.90
2018-07-22T19:44:51.516Z,16.90
2018-07-22T19:47:19.744Z,16.90
2018-07-22T19:49:47.765Z,16.90
2018-07-22T19:54:43.741Z,16.90
2018-07-22T19:57:11.980Z,16.90
2018-07-22T20:02:08.153Z,16.80
2018-07-22T20:04:36.239Z,16.80
2018-07-22T20:07:04.410Z,16.80
2018-07-22T20:09:32.696Z,16.80
2018-07-22T20:12:00.862Z,16.70
2018-07-22T20:14:28.910Z,16.70
2018-07-22T20:16:57.217Z,16.70
2018-07-22T20:19:25.298Z,16.70
2018-07-22T20:21:53.363Z,16.60
2018-07-22T20:24:21.650Z,16.60
2018-07-22T20:26:49.787Z,16.50
2018-07-22T20:29:17.986Z,16.50
2018-07-22T20:31:46.193Z,16.50
2018-07-22T20:36:42.092Z,16.40
2018-07-22T20:39:11.191Z,16.50
2018-07-22T20:44:07.829Z,16.60
2018-07-22T20:49:03.988Z,16.60
2018-07-22T20:51:32.395Z,16.60
2018-07-22T20:54:00.537Z,16.60
2018-07-22T20:56:28.641Z,16.60
2018-07-22T20:58:56.796Z,16.50
2018-07-22T21:01:25.046Z,16.50
2018-07-22T21:06:21.257Z,16.50
2018-07-22T21:08:49.408Z,16.40
2018-07-22T21:11:19.361Z,16.40
2018-07-22T21:13:47.708Z,16.40
2018-07-22T21:16:16.077Z,16.40
2018-07-22T21:18:44.173Z,16.40
2018-07-22T21:21:12.418Z,16.40
2018-07-22T21:26:08.879Z,16.40
2018-07-22T21:28:37.074Z,16.40
2018-07-22T21:31:05.349Z,16.40
2018-07-22T21:33:33.499Z,16.40
2018-07-22T21:36:01.604Z,16.40
2018-07-22T21:38:29.897Z,16.30
2018-07-22T21:40:58.208Z,16.40
2018-07-22T21:45:54.296Z,16.30
2018-07-22T21:48:22.582Z,16.30
2018-07-22T21:50:50.965Z,16.30
2018-07-22T21:53:19.044Z,16.30
2018-07-22T21:55:47.214Z,16.30
2018-07-22T21:58:15.697Z,16.30
2018-07-22T22:00:44.705Z,16.30
2018-07-22T22:03:13.001Z,16.30
2018-07-22T22:05:41.428Z,16.30
2018-07-22T22:08:09.532Z,16.30
2018-07-22T22:10:37.879Z,16.30
2018-07-22T22:13:06.081Z,16.20
2018-07-22T22:15:34.471Z,16.20
2018-07-22T22:18:03.648Z,16.30
2018-07-22T22:20:32.231Z,16.30
2018-07-22T22:23:00.437Z,16.30
2018-07-22T22:25:28.389Z,16.20
2018-07-22T22:27:56.530Z,16.20
2018-07-22T22:32:52.495Z,16.20
2018-07-22T22:35:20.554Z,16.20
2018-07-22T22:37:48.673Z,16.20
2018-07-22T22:40:16.720Z,16.20
2018-07-22T22:42:45.756Z,16.20
2018-07-22T22:45:14.425Z,16.20
2018-07-22T22:47:42.464Z,16.20
2018-07-22T22:50:10.648Z,16.20
2018-07-22T22:52:38.691Z,16.20
2018-07-22T22:57:34.674Z,16.30
2018-07-22T23:00:02.921Z,16.20
2018-07-22T23:02:33.782Z,16.20
2018-07-22T23:05:02.156Z,16.20
2018-07-22T23:07:30.231Z,16.20
2018-07-22T23:09:58.392Z,16.20
2018-07-22T23:14:54.452Z,16.20
2018-07-22T23:17:22.508Z,16.20
2018-07-22T23:19:50.763Z,16.20
2018-07-22T23:24:46.872Z,16.20
2018-07-22T23:27:15.034Z,16.10
2018-07-22T23:29:43.071Z,16.10
2018-07-22T23:34:39.025Z,16.10
2018-07-22T23:37:07.124Z,16.10
2018-07-22T23:39:35.274Z,16.10
2018-07-22T23:42:03.361Z,16.10
2018-07-22T23:44:31.343Z,16.10
2018-07-22T23:46:59.492Z,16.10
2018-07-22T23:49:27.582Z,16.00
2018-07-22T23:51:55.844Z,16.00
2018-07-22T23:54:23.924Z,16.00
2018-07-22T23:56:52.028Z,16.00
2018-07-22T23:59:20.056Z,16.00
